createdAt,value
2023-04-09T00:01:45.720Z,8.38
2023-04-09T00:03:47.353Z,8.38
2023-04-09T00:05:49.010Z,8.38
2023-04-09T00:07:50.485Z,8.38
2023-04-09T00:09:51.943Z,8.38
2023-04-09T00:11:53.917Z,8.39
2023-04-09T00:13:55.455Z,8.37
2023-04-09T00:15:56.915Z,8.36
2023-04-09T00:17:58.774Z,8.36
2023-04-09T00:20:00.488Z,8.36
2023-04-09T00:22:01.961Z,8.35
2023-04-09T00:24:03.590Z,8.36
2023-04-09T00:26:05.330Z,8.35
2023-04-09T00:28:06.826Z,8.35
2023-04-09T00:30:08.938Z,8.35
2023-04-09T00:32:10.492Z,8.34
2023-04-09T00:34:11.995Z,8.34
2023-04-09T00:36:13.542Z,8.34
2023-04-09T00:38:15.487Z,8.33
2023-04-09T00:40:17.059Z,8.33
2023-04-09T00:42:18.518Z,8.32
2023-04-09T00:44:19.985Z,8.31
2023-04-09T00:46:21.520Z,8.30
2023-04-09T00:48:23.129Z,8.30
2023-04-09T00:50:24.704Z,8.30
2023-04-09T00:52:26.593Z,8.29
2023-04-09T00:54:28.319Z,8.27
2023-04-09T00:56:30.258Z,8.26
2023-04-09T00:58:31.824Z,8.27
2023-04-09T01:00:33.300Z,8.25
2023-04-09T01:02:35.240Z,8.25
2023-04-09T01:04:38.522Z,8.25
2023-04-09T01:06:52.188Z,8.24
2023-04-09T01:08:56.648Z,8.23
2023-04-09T01:11:21.949Z,8.22
2023-04-09T01:13:42.650Z,8.20
2023-04-09T01:15:52.096Z,8.20
2023-04-09T01:18:01.473Z,8.18
2023-04-09T01:20:08.973Z,8.17
2023-04-09T01:22:42.427Z,8.18
2023-04-09T01:25:05.156Z,8.16
2023-04-09T01:27:08.280Z,8.14
2023-04-09T01:29:11.126Z,8.13
2023-04-09T01:31:18.903Z,8.14
2023-04-09T01:33:21.903Z,8.12
2023-04-09T01:35:24.441Z,8.11
2023-04-09T01:37:27.011Z,8.10
2023-04-09T01:39:29.485Z,8.11
2023-04-09T01:41:34.183Z,8.11
2023-04-09T01:43:37.321Z,8.10
2023-04-09T01:45:40.242Z,8.08
2023-04-09T01:47:41.882Z,8.08
2023-04-09T01:49:44.737Z,8.07
2023-04-09T01:51:47.507Z,8.07
2023-04-09T01:53:49.553Z,8.06
2023-04-09T01:55:51.067Z,8.04
2023-04-09T01:57:52.589Z,8.05
2023-04-09T01:59:55.070Z,8.05
2023-04-09T02:02:11.288Z,8.06
2023-04-09T02:04:28.371Z,8.05
2023-04-09T02:06:40.055Z,8.04
2023-04-09T02:08:46.383Z,8.03
2023-04-09T02:10:53.654Z,8.03
2023-04-09T02:12:56.475Z,8.02
2023-04-09T02:14:59.997Z,8.02
2023-04-09T02:17:02.138Z,8.01
2023-04-09T02:19:03.815Z,8.01
2023-04-09T02:21:05.966Z,8.01
2023-04-09T02:23:07.482Z,8.00
2023-04-09T02:25:09.140Z,7.99
2023-04-09T02:27:10.742Z,7.99
2023-04-09T02:29:12.225Z,7.97
2023-04-09T02:31:13.961Z,7.97
2023-04-09T02:33:15.623Z,7.96
2023-04-09T02:35:17.287Z,7.96
2023-04-09T02:37:18.758Z,7.96
2023-04-09T02:39:20.408Z,7.95
2023-04-09T02:41:21.986Z,7.95
2023-04-09T02:43:23.758Z,7.95
2023-04-09T02:45:25.403Z,7.95
2023-04-09T02:47:27.264Z,7.95
2023-04-09T02:49:28.869Z,7.95
2023-04-09T02:51:30.341Z,7.94
2023-04-09T02:53:31.900Z,7.94
2023-04-09T02:55:33.892Z,7.91
2023-04-09T02:57:36.356Z,7.91
2023-04-09T02:59:39.080Z,7.90
2023-04-09T03:01:41.014Z,7.91
2023-04-09T03:03:43.136Z,7.90
2023-04-09T03:05:44.941Z,7.89
2023-04-09T03:07:47.385Z,7.90
2023-04-09T03:09:48.909Z,7.90
2023-04-09T03:11:50.583Z,7.89
2023-04-09T03:13:52.058Z,7.88
2023-04-09T03:15:53.665Z,7.87
2023-04-09T03:17:55.231Z,7.86
2023-04-09T03:19:56.739Z,7.85
2023-04-09T03:21:58.536Z,7.84
2023-04-09T03:24:00.164Z,7.84
2023-04-09T03:26:03.254Z,7.84
2023-04-09T03:28:04.767Z,7.83
2023-04-09T03:30:06.727Z,7.82
2023-04-09T03:32:08.236Z,7.82
2023-04-09T03:34:09.751Z,7.81
2023-04-09T03:36:11.341Z,7.79
2023-04-09T03:38:12.973Z,7.78
2023-04-09T03:40:14.551Z,7.76
2023-04-09T03:42:16.105Z,7.75
2023-04-09T03:44:17.597Z,7.72
2023-04-09T03:46:19.155Z,7.72
2023-04-09T03:48:20.644Z,7.71
2023-04-09T03:50:22.152Z,7.68
2023-04-09T03:52:23.676Z,7.66
2023-04-09T03:54:25.173Z,7.63
2023-04-09T03:56:26.724Z,7.60
2023-04-09T03:58:28.223Z,7.56
2023-04-09T04:00:29.713Z,7.53
2023-04-09T04:02:33.758Z,7.49
2023-04-09T04:04:35.469Z,7.47
2023-04-09T04:06:36.984Z,7.41
2023-04-09T04:08:38.521Z,7.38
2023-04-09T04:10:40.301Z,7.35
2023-04-09T04:12:41.824Z,7.30
2023-04-09T04:14:43.419Z,7.25
2023-04-09T04:16:45.018Z,7.19
2023-04-09T04:18:46.606Z,7.15
2023-04-09T04:20:48.083Z,7.12
2023-04-09T04:22:49.590Z,7.07
2023-04-09T04:24:51.089Z,7.02
2023-04-09T04:26:52.545Z,6.98
2023-04-09T04:28:54.133Z,6.92
2023-04-09T04:30:55.924Z,6.88
2023-04-09T04:32:57.434Z,6.83
2023-04-09T04:34:58.990Z,6.79
2023-04-09T04:37:00.454Z,6.74
2023-04-09T04:39:01.998Z,6.72
2023-04-09T04:41:03.892Z,6.69
2023-04-09T04:43:05.409Z,6.66
2023-04-09T04:45:07.573Z,6.62
2023-04-09T04:47:09.132Z,6.57
2023-04-09T04:49:10.808Z,6.54
2023-04-09T04:51:12.279Z,6.51
2023-04-09T04:53:13.775Z,6.48
2023-04-09T04:55:15.375Z,6.45
2023-04-09T04:57:16.869Z,6.42
2023-04-09T04:59:18.430Z,6.39
2023-04-09T05:01:19.949Z,6.36
2023-04-09T05:03:21.561Z,6.34
2023-04-09T05:05:23.569Z,6.30
2023-04-09T05:07:25.069Z,6.27
2023-04-09T05:09:26.626Z,6.26
2023-04-09T05:11:28.465Z,6.22
2023-04-09T05:13:29.944Z,6.18
2023-04-09T05:15:31.468Z,6.16
2023-04-09T05:17:33.046Z,6.15
2023-04-09T05:19:34.577Z,6.12
2023-04-09T05:21:36.062Z,6.10
2023-04-09T05:23:37.604Z,6.09
2023-04-09T05:25:39.475Z,6.09
2023-04-09T05:27:41.031Z,6.08
2023-04-09T05:29:42.568Z,6.09
2023-04-09T05:31:44.176Z,6.10
2023-04-09T05:33:45.778Z,6.11
2023-04-09T05:35:47.301Z,6.14
2023-04-09T05:37:49.134Z,6.13
2023-04-09T05:39:50.903Z,6.14
2023-04-09T05:41:52.792Z,6.16
2023-04-09T05:43:54.492Z,6.18
2023-04-09T05:45:56.134Z,6.22
2023-04-09T05:47:57.663Z,6.23
2023-04-09T05:49:59.167Z,6.26
2023-04-09T05:52:00.760Z,6.28
2023-04-09T05:54:03.351Z,6.30
2023-04-09T05:56:13.376Z,6.33
2023-04-09T05:58:16.029Z,6.33
2023-04-09T06:00:18.366Z,6.36
2023-04-09T06:02:20.063Z,6.39
2023-04-09T06:04:21.863Z,6.41
2023-04-09T06:06:23.484Z,6.45
2023-04-09T06:08:24.962Z,6.49
2023-04-09T06:10:26.529Z,6.52
2023-04-09T06:12:28.075Z,6.57
2023-04-09T06:14:29.816Z,6.59
2023-04-09T06:16:32.852Z,6.64
2023-04-09T06:18:34.997Z,6.67
2023-04-09T06:20:36.494Z,6.69
2023-04-09T06:22:38.044Z,6.73
2023-04-09T06:24:39.582Z,6.74
2023-04-09T06:26:41.528Z,6.75
2023-04-09T06:28:43.251Z,6.77
2023-04-09T06:30:44.845Z,6.79
2023-04-09T06:32:54.590Z,6.82
2023-04-09T06:34:56.910Z,6.86
2023-04-09T06:36:58.405Z,6.89
2023-04-09T06:38:59.925Z,6.93
2023-04-09T06:41:01.383Z,6.98
2023-04-09T06:43:02.864Z,7.02
2023-04-09T06:45:08.505Z,7.08
2023-04-09T06:47:10.159Z,7.13
2023-04-09T06:49:11.711Z,7.18
2023-04-09T06:51:13.485Z,7.21
2023-04-09T06:53:15.442Z,7.28
2023-04-09T06:55:17.037Z,7.32
2023-04-09T06:57:18.490Z,7.36
2023-04-09T06:59:19.946Z,7.40
2023-04-09T07:01:21.489Z,7.41
2023-04-09T07:03:23.631Z,7.44
2023-04-09T07:05:25.277Z,7.50
2023-04-09T07:07:26.759Z,7.53
2023-04-09T07:09:28.228Z,7.56
2023-04-09T07:11:29.731Z,7.60
2023-04-09T07:13:32.960Z,7.64
2023-04-09T07:15:34.627Z,7.68
2023-04-09T07:17:36.175Z,7.75
2023-04-09T07:19:37.677Z,7.80
2023-04-09T07:21:39.259Z,7.87
2023-04-09T07:23:40.812Z,7.95
2023-04-09T07:25:42.461Z,8.01
2023-04-09T07:27:44.596Z,8.06
2023-04-09T07:29:46.621Z,8.08
2023-04-09T07:31:48.183Z,8.12
2023-04-09T07:33:49.720Z,8.17
2023-04-09T07:35:51.336Z,8.22
2023-04-09T07:37:52.987Z,8.26
2023-04-09T07:39:54.513Z,8.30
2023-04-09T07:41:57.437Z,8.35
2023-04-09T07:43:59.289Z,8.38
2023-04-09T07:46:00.733Z,8.45
2023-04-09T07:48:02.271Z,8.49
2023-04-09T07:50:04.103Z,8.52
2023-04-09T07:52:06.382Z,8.58
2023-04-09T07:54:08.914Z,8.65
2023-04-09T07:56:10.476Z,8.69
2023-04-09T07:58:12.035Z,8.70
2023-04-09T08:00:14.011Z,8.74
2023-04-09T08:02:15.701Z,8.76
2023-04-09T08:04:18.020Z,8.78
2023-04-09T08:06:19.872Z,8.85
2023-04-09T08:08:21.828Z,8.88
2023-04-09T08:10:23.354Z,8.94
2023-04-09T08:12:24.931Z,9.00
2023-04-09T08:14:26.479Z,9.04
2023-04-09T08:16:30.108Z,9.12
2023-04-09T08:18:31.699Z,9.20
2023-04-09T08:20:33.350Z,9.22
2023-04-09T08:22:34.829Z,9.28
2023-04-09T08:24:37.048Z,9.36
2023-04-09T08:26:39.907Z,9.43
2023-04-09T08:28:42.014Z,9.47
2023-04-09T08:30:44.149Z,9.53
2023-04-09T08:32:45.764Z,9.60
2023-04-09T08:34:47.361Z,9.67
2023-04-09T08:36:49.944Z,9.71
2023-04-09T08:38:53.263Z,9.75
2023-04-09T08:40:54.892Z,9.74
2023-04-09T08:42:59.429Z,9.79
2023-04-09T08:45:04.236Z,9.97
2023-04-09T08:47:11.651Z,10.07
2023-04-09T08:49:13.273Z,10.15
2023-04-09T08:51:24.821Z,10.21
2023-04-09T08:53:27.441Z,10.23
2023-04-09T08:55:29.285Z,10.25
2023-04-09T08:57:31.113Z,10.27
2023-04-09T08:59:36.896Z,10.35
2023-04-09T09:01:38.512Z,10.39
2023-04-09T09:04:08.955Z,10.39
2023-04-09T09:06:22.160Z,10.46
2023-04-09T09:08:24.899Z,10.51
2023-04-09T09:10:37.336Z,10.63
2023-04-09T09:12:41.081Z,10.63
2023-04-09T09:14:42.612Z,10.66
2023-04-09T09:16:57.762Z,10.73
2023-04-09T09:19:00.307Z,10.81
2023-04-09T09:21:11.299Z,10.87
2023-04-09T09:23:12.812Z,10.94
2023-04-09T09:25:14.292Z,11.00
2023-04-09T09:27:43.181Z,11.06
2023-04-09T09:29:45.123Z,11.12
2023-04-09T09:31:49.396Z,11.24
2023-04-09T09:33:51.626Z,11.31
2023-04-09T09:35:54.470Z,11.31
2023-04-09T09:38:05.336Z,11.38
2023-04-09T09:40:07.815Z,11.42
2023-04-09T09:42:09.412Z,11.46
2023-04-09T09:44:12.504Z,11.50
2023-04-09T09:46:15.392Z,11.57
2023-04-09T09:48:16.878Z,11.55
2023-04-09T09:50:19.006Z,11.47
2023-04-09T09:52:30.254Z,11.52
2023-04-09T09:54:40.964Z,11.56
2023-04-09T09:56:44.318Z,11.71
2023-04-09T09:58:53.500Z,11.84
2023-04-09T10:00:57.425Z,11.89
2023-04-09T10:03:21.372Z,11.83
2023-04-09T10:05:26.921Z,11.86
2023-04-09T10:07:29.587Z,12.04
2023-04-09T10:09:32.271Z,12.23
2023-04-09T10:11:36.580Z,12.37
2023-04-09T10:13:40.770Z,12.39
2023-04-09T10:15:44.675Z,12.47
2023-04-09T10:17:46.686Z,12.52
2023-04-09T10:19:56.871Z,12.65
2023-04-09T10:22:05.758Z,12.78
2023-04-09T10:24:09.143Z,12.91
2023-04-09T10:26:11.311Z,13.08
2023-04-09T10:28:23.298Z,13.25
2023-04-09T10:30:35.073Z,13.36
2023-04-09T10:32:36.854Z,13.38
2023-04-09T10:34:43.856Z,13.41
2023-04-09T10:36:49.676Z,13.49
2023-04-09T10:38:51.588Z,13.62
2023-04-09T10:40:53.375Z,13.76
2023-04-09T10:42:59.439Z,13.84
2023-04-09T10:45:11.523Z,14.02
2023-04-09T10:47:32.945Z,14.12
2023-04-09T10:49:38.398Z,13.98
2023-04-09T10:51:40.608Z,13.99
2023-04-09T10:53:42.234Z,14.21
2023-04-09T10:55:52.704Z,14.41
2023-04-09T10:57:54.217Z,14.45
2023-04-09T10:59:55.985Z,14.50
2023-04-09T11:01:57.600Z,14.70
2023-04-09T11:04:16.487Z,15.04
2023-04-09T11:06:21.368Z,15.49
2023-04-09T11:08:22.881Z,15.74
2023-04-09T11:10:24.490Z,15.64
2023-04-09T11:12:26.022Z,15.42
2023-04-09T11:14:27.729Z,15.58
2023-04-09T11:16:30.873Z,16.03
2023-04-09T11:18:34.826Z,16.22
2023-04-09T11:20:36.681Z,16.19
2023-04-09T11:22:38.618Z,15.96
2023-04-09T11:24:43.650Z,16.24
2023-04-09T11:26:45.936Z,16.79
2023-04-09T11:28:47.435Z,17.25
2023-04-09T11:30:51.412Z,17.87
2023-04-09T11:32:53.639Z,18.37
2023-04-09T11:34:57.058Z,18.65
2023-04-09T11:36:59.804Z,19.01
2023-04-09T11:39:02.471Z,19.51
2023-04-09T11:41:03.971Z,19.65
2023-04-09T11:43:08.232Z,19.29
2023-04-09T11:45:11.416Z,19.29
2023-04-09T11:47:18.589Z,19.65
2023-04-09T11:49:20.930Z,20.01
2023-04-09T11:51:23.409Z,19.81
2023-04-09T11:53:30.979Z,19.66
2023-04-09T11:55:33.688Z,19.81
2023-04-09T11:57:43.044Z,20.08
2023-04-09T11:59:45.217Z,20.40
2023-04-09T12:01:50.407Z,20.44
2023-04-09T12:03:54.505Z,20.34
2023-04-09T12:05:56.465Z,20.46
2023-04-09T12:08:08.037Z,20.78
2023-04-09T12:10:10.468Z,21.15
2023-04-09T12:12:12.097Z,21.45
2023-04-09T12:14:14.866Z,21.53
2023-04-09T12:16:21.138Z,21.24
2023-04-09T12:18:23.550Z,21.21
2023-04-09T12:20:35.639Z,21.45
2023-04-09T12:22:40.739Z,21.88
2023-04-09T12:24:42.293Z,22.13
2023-04-09T12:26:45.484Z,22.13
2023-04-09T12:28:46.953Z,22.33
2023-04-09T12:30:49.123Z,22.50
2023-04-09T12:32:52.559Z,22.55
2023-04-09T12:34:54.003Z,22.55
2023-04-09T12:36:55.564Z,22.50
2023-04-09T12:38:57.094Z,22.52
2023-04-09T12:40:59.036Z,22.45
2023-04-09T12:43:01.463Z,22.34
2023-04-09T12:45:03.087Z,22.22
2023-04-09T12:47:04.548Z,22.06
2023-04-09T12:49:06.428Z,21.99
2023-04-09T12:51:08.926Z,21.75
2023-04-09T12:53:10.549Z,21.38
2023-04-09T12:55:13.065Z,20.99
2023-04-09T12:57:14.570Z,20.92
2023-04-09T12:59:16.025Z,20.95
2023-04-09T13:01:18.134Z,20.99
2023-04-09T13:03:20.217Z,20.89
2023-04-09T13:05:21.859Z,20.92
2023-04-09T13:07:23.519Z,20.95
2023-04-09T13:09:25.742Z,20.96
2023-04-09T13:11:27.361Z,20.90
2023-04-09T13:13:28.822Z,20.85
2023-04-09T13:15:30.359Z,20.71
2023-04-09T13:17:31.856Z,20.47
2023-04-09T13:19:33.499Z,20.34
2023-04-09T13:21:36.001Z,20.19
2023-04-09T13:23:37.487Z,20.18
2023-04-09T13:25:39.043Z,20.23
2023-04-09T13:27:40.499Z,20.31
2023-04-09T13:29:41.982Z,20.35
2023-04-09T13:31:43.654Z,20.23
2023-04-09T13:33:45.255Z,20.00
2023-04-09T13:35:46.794Z,19.82
2023-04-09T13:37:48.288Z,19.17
2023-04-09T13:39:50.804Z,18.94
2023-04-09T13:41:52.406Z,18.91
2023-04-09T13:43:53.878Z,18.94
2023-04-09T13:45:55.910Z,19.13
2023-04-09T13:47:57.703Z,19.22
2023-04-09T13:49:59.215Z,19.33
2023-04-09T13:52:01.074Z,19.22
2023-04-09T13:54:04.530Z,18.85
2023-04-09T13:56:07.624Z,18.43
2023-04-09T13:58:09.362Z,18.31
2023-04-09T14:00:11.213Z,17.99
2023-04-09T14:02:13.001Z,17.43
2023-04-09T14:04:15.118Z,16.97
2023-04-09T14:06:16.781Z,17.16
2023-04-09T14:08:18.365Z,17.39
2023-04-09T14:10:19.858Z,17.49
2023-04-09T14:12:21.336Z,17.69
2023-04-09T14:14:22.950Z,18.00
2023-04-09T14:16:24.538Z,18.23
2023-04-09T14:18:26.076Z,18.16
2023-04-09T14:20:27.998Z,17.94
2023-04-09T14:22:29.918Z,17.55
2023-04-09T14:24:31.440Z,17.18
2023-04-09T14:26:32.905Z,17.05
2023-04-09T14:28:34.420Z,17.27
2023-04-09T14:30:35.979Z,17.30
2023-04-09T14:32:37.502Z,17.00
2023-04-09T14:34:39.103Z,16.92
2023-04-09T14:36:40.796Z,16.98
2023-04-09T14:38:42.254Z,16.79
2023-04-09T14:40:44.032Z,16.88
2023-04-09T14:42:45.648Z,17.24
2023-04-09T14:44:47.135Z,17.62
2023-04-09T14:46:48.612Z,17.95
2023-04-09T14:48:50.372Z,18.20
2023-04-09T14:50:52.337Z,18.02
2023-04-09T14:52:53.843Z,17.97
2023-04-09T14:54:55.350Z,17.71
2023-04-09T14:56:59.887Z,17.36
2023-04-09T14:59:01.371Z,17.17
2023-04-09T15:01:04.266Z,17.23
2023-04-09T15:03:05.885Z,17.21
2023-04-09T15:05:08.709Z,17.30
2023-04-09T15:07:10.164Z,16.98
2023-04-09T15:09:12.116Z,16.89
2023-04-09T15:11:18.187Z,17.02
2023-04-09T15:13:19.728Z,17.23
2023-04-09T15:15:21.207Z,17.19
2023-04-09T15:17:23.051Z,17.13
2023-04-09T15:19:24.556Z,17.36
2023-04-09T15:21:27.766Z,17.63
2023-04-09T15:23:29.350Z,17.80
2023-04-09T15:25:30.898Z,17.96
2023-04-09T15:27:32.750Z,18.02
2023-04-09T15:29:34.504Z,17.91
2023-04-09T15:31:36.326Z,17.69
2023-04-09T15:33:38.327Z,17.34
2023-04-09T15:35:39.858Z,17.43
2023-04-09T15:37:41.716Z,17.63
2023-04-09T15:39:43.331Z,17.94
2023-04-09T15:41:45.621Z,18.12
2023-04-09T15:43:47.086Z,18.25
2023-04-09T15:45:49.560Z,18.28
2023-04-09T15:47:51.218Z,18.32
2023-04-09T15:49:52.763Z,18.25
2023-04-09T15:51:54.258Z,18.23
2023-04-09T15:53:55.713Z,18.24
2023-04-09T15:55:58.204Z,18.27
2023-04-09T15:57:59.701Z,17.86
2023-04-09T16:00:01.331Z,17.60
2023-04-09T16:02:04.497Z,17.42
2023-04-09T16:04:06.082Z,17.03
2023-04-09T16:06:14.470Z,17.09
2023-04-09T16:08:16.089Z,17.37
2023-04-09T16:10:20.438Z,17.45
2023-04-09T16:12:23.270Z,17.32
2023-04-09T16:14:24.727Z,17.40
2023-04-09T16:16:26.302Z,17.43
2023-04-09T16:18:27.820Z,17.25
2023-04-09T16:20:29.432Z,17.15
2023-04-09T16:22:32.306Z,17.36
2023-04-09T16:24:33.952Z,17.55
2023-04-09T16:26:35.442Z,17.65
2023-04-09T16:28:36.894Z,17.76
2023-04-09T16:30:38.365Z,17.88
2023-04-09T16:32:39.856Z,17.97
2023-04-09T16:34:41.346Z,18.01
2023-04-09T16:36:42.874Z,17.92
2023-04-09T16:38:44.317Z,17.94
2023-04-09T16:40:45.967Z,17.96
2023-04-09T16:42:47.445Z,17.97
2023-04-09T16:44:49.351Z,17.88
2023-04-09T16:46:51.008Z,17.57
2023-04-09T16:48:52.738Z,17.39
2023-04-09T16:50:54.398Z,17.26
2023-04-09T16:52:55.907Z,17.08
2023-04-09T16:54:57.348Z,16.95
2023-04-09T16:56:58.811Z,16.83
2023-04-09T16:59:00.288Z,16.63
2023-04-09T17:01:02.204Z,16.50
2023-04-09T17:03:03.950Z,16.33
2023-04-09T17:05:06.064Z,16.17
2023-04-09T17:07:07.577Z,16.02
2023-04-09T17:09:09.414Z,15.91
2023-04-09T17:11:15.457Z,15.74
2023-04-09T17:13:17.315Z,15.57
2023-04-09T17:15:18.789Z,15.38
2023-04-09T17:17:20.320Z,15.26
2023-04-09T17:19:22.058Z,15.15
2023-04-09T17:21:23.595Z,15.03
2023-04-09T17:23:25.120Z,14.91
2023-04-09T17:25:27.065Z,14.81
2023-04-09T17:27:28.582Z,14.72
2023-04-09T17:29:30.998Z,14.65
2023-04-09T17:31:32.456Z,14.55
2023-04-09T17:33:33.947Z,14.44
2023-04-09T17:35:35.455Z,14.35
2023-04-09T17:37:38.653Z,14.27
2023-04-09T17:39:40.500Z,14.21
2023-04-09T17:41:45.296Z,14.14
2023-04-09T17:43:46.772Z,14.07
2023-04-09T17:45:49.246Z,13.98
2023-04-09T17:47:51.141Z,13.89
2023-04-09T17:49:52.806Z,13.79
2023-04-09T17:51:54.397Z,13.65
2023-04-09T17:53:56.284Z,13.58
2023-04-09T17:55:57.878Z,13.45
2023-04-09T17:57:59.399Z,13.34
2023-04-09T18:00:01.581Z,13.29
2023-04-09T18:02:03.575Z,13.21
2023-04-09T18:04:05.513Z,13.17
2023-04-09T18:06:07.620Z,13.09
2023-04-09T18:08:09.143Z,13.03
2023-04-09T18:10:10.911Z,12.96
2023-04-09T18:12:12.437Z,12.88
2023-04-09T18:14:13.997Z,12.79
2023-04-09T18:16:17.494Z,12.74
2023-04-09T18:18:19.082Z,12.71
2023-04-09T18:20:20.776Z,12.65
2023-04-09T18:22:22.605Z,12.62
2023-04-09T18:24:26.217Z,12.56
2023-04-09T18:26:27.661Z,12.51
2023-04-09T18:28:29.356Z,12.47
2023-04-09T18:30:31.426Z,12.43
2023-04-09T18:32:33.566Z,12.40
2023-04-09T18:34:35.236Z,12.35
2023-04-09T18:36:36.795Z,12.33
2023-04-09T18:38:38.473Z,12.30
2023-04-09T18:40:44.276Z,12.27
2023-04-09T18:42:51.692Z,12.25
2023-04-09T18:44:53.213Z,12.22
2023-04-09T18:46:54.901Z,12.19
2023-04-09T18:48:56.461Z,12.17
2023-04-09T18:50:58.974Z,12.16
2023-04-09T18:53:00.971Z,12.14
2023-04-09T18:55:02.457Z,12.10
2023-04-09T18:57:04.216Z,12.05
2023-04-09T18:59:05.759Z,12.01
2023-04-09T19:01:11.803Z,11.97
2023-04-09T19:03:13.563Z,11.94
2023-04-09T19:05:15.283Z,11.89
2023-04-09T19:07:17.114Z,11.86
2023-04-09T19:09:19.079Z,11.80
2023-04-09T19:11:20.533Z,11.74
2023-04-09T19:13:22.004Z,11.69
2023-04-09T19:15:26.314Z,11.61
2023-04-09T19:17:28.242Z,11.57
2023-04-09T19:19:29.893Z,11.50
2023-04-09T19:21:31.525Z,11.42
2023-04-09T19:23:34.535Z,11.34
2023-04-09T19:25:36.191Z,11.28
2023-04-09T19:27:38.812Z,11.21
2023-04-09T19:29:40.400Z,11.14
2023-04-09T19:31:41.960Z,11.08
2023-04-09T19:33:43.500Z,10.99
2023-04-09T19:35:47.943Z,10.93
2023-04-09T19:37:49.484Z,10.86
2023-04-09T19:39:51.061Z,10.79
2023-04-09T19:41:52.598Z,10.72
2023-04-09T19:43:54.079Z,10.65
2023-04-09T19:45:56.371Z,10.58
2023-04-09T19:47:57.867Z,10.56
2023-04-09T19:49:59.851Z,10.48
2023-04-09T19:52:01.326Z,10.43
2023-04-09T19:54:02.786Z,10.37
2023-04-09T19:56:04.523Z,10.30
2023-04-09T19:58:06.904Z,10.25
2023-04-09T20:00:08.855Z,10.18
2023-04-09T20:02:10.626Z,10.13
2023-04-09T20:04:12.917Z,10.07
2023-04-09T20:06:14.572Z,10.02
2023-04-09T20:08:16.659Z,9.97
2023-04-09T20:10:18.690Z,9.93
2023-04-09T20:12:21.718Z,9.86
2023-04-09T20:14:23.278Z,9.80
2023-04-09T20:16:24.768Z,9.74
2023-04-09T20:18:26.277Z,9.67
2023-04-09T20:20:27.767Z,9.61
2023-04-09T20:22:29.493Z,9.55
2023-04-09T20:24:31.033Z,9.49
2023-04-09T20:26:32.523Z,9.41
2023-04-09T20:28:35.142Z,9.36
2023-04-09T20:30:36.932Z,9.29
2023-04-09T20:32:38.450Z,9.26
2023-04-09T20:34:40.022Z,9.21
2023-04-09T20:36:43.657Z,9.15
2023-04-09T20:38:45.413Z,9.10
2023-04-09T20:40:47.074Z,9.04
2023-04-09T20:42:48.693Z,8.99
2023-04-09T20:44:50.193Z,8.94
2023-04-09T20:46:51.981Z,8.89
2023-04-09T20:48:53.673Z,8.82
2023-04-09T20:50:56.723Z,8.77
2023-04-09T20:52:58.799Z,8.73
2023-04-09T20:55:00.828Z,8.69
2023-04-09T20:57:03.462Z,8.64
2023-04-09T20:59:04.998Z,8.61
2023-04-09T21:01:09.137Z,8.55
2023-04-09T21:03:10.826Z,8.48
2023-04-09T21:05:22.833Z,8.44
2023-04-09T21:07:25.222Z,8.40
2023-04-09T21:09:26.792Z,8.36
2023-04-09T21:11:29.106Z,8.32
2023-04-09T21:13:33.681Z,8.27
2023-04-09T21:15:39.286Z,8.21
2023-04-09T21:17:40.922Z,8.17
2023-04-09T21:19:42.677Z,8.14
2023-04-09T21:21:44.173Z,8.11
2023-04-09T21:23:45.674Z,8.07
2023-04-09T21:25:47.147Z,8.03
2023-04-09T21:27:48.613Z,8.00
2023-04-09T21:29:50.287Z,7.98
2023-04-09T21:31:51.755Z,7.94
2023-04-09T21:33:53.310Z,7.90
2023-04-09T21:35:54.803Z,7.89
2023-04-09T21:37:56.787Z,7.86
2023-04-09T21:39:58.264Z,7.82
2023-04-09T21:42:00.158Z,7.77
2023-04-09T21:44:07.904Z,7.74
2023-04-09T21:46:09.467Z,7.71
2023-04-09T21:48:12.364Z,7.68
2023-04-09T21:50:14.683Z,7.65
2023-04-09T21:52:17.157Z,7.62
2023-04-09T21:54:18.633Z,7.57
2023-04-09T21:56:20.350Z,7.55
2023-04-09T21:58:21.873Z,7.51
2023-04-09T22:00:23.342Z,7.48
2023-04-09T22:02:24.973Z,7.44
2023-04-09T22:04:27.110Z,7.41
2023-04-09T22:06:29.301Z,7.40
2023-04-09T22:08:30.893Z,7.35
2023-04-09T22:10:32.416Z,7.32
2023-04-09T22:12:36.090Z,7.30
2023-04-09T22:14:39.124Z,7.26
2023-04-09T22:16:41.561Z,7.22
2023-04-09T22:18:43.033Z,7.18
2023-04-09T22:20:44.504Z,7.15
2023-04-09T22:22:46.050Z,7.12
2023-04-09T22:24:47.533Z,7.08
2023-04-09T22:26:49.014Z,7.05
2023-04-09T22:28:50.804Z,7.02
2023-04-09T22:30:52.961Z,7.00
2023-04-09T22:32:54.534Z,6.96
2023-04-09T22:34:56.032Z,6.92
2023-04-09T22:36:57.725Z,6.89
2023-04-09T22:38:59.253Z,6.84
2023-04-09T22:41:01.562Z,6.80
2023-04-09T22:43:03.222Z,6.77
2023-04-09T22:45:05.026Z,6.74
2023-04-09T22:47:06.488Z,6.70
2023-04-09T22:49:08.499Z,6.67
2023-04-09T22:51:10.219Z,6.66
2023-04-09T22:53:12.170Z,6.63
2023-04-09T22:55:13.913Z,6.60
2023-04-09T22:57:15.479Z,6.55
2023-04-09T22:59:17.456Z,6.54
2023-04-09T23:01:22.145Z,6.52
2023-04-09T23:03:24.034Z,6.50
2023-04-09T23:05:25.678Z,6.48
2023-04-09T23:07:27.367Z,6.46
2023-04-09T23:09:30.832Z,6.45
2023-04-09T23:11:32.345Z,6.42
2023-04-09T23:13:33.829Z,6.42
2023-04-09T23:15:35.307Z,6.39
2023-04-09T23:17:36.916Z,6.36
2023-04-09T23:19:38.408Z,6.36
2023-04-09T23:21:39.916Z,6.33
2023-04-09T23:23:41.411Z,6.31
2023-04-09T23:25:42.952Z,6.29
2023-04-09T23:27:44.836Z,6.29
2023-04-09T23:29:46.728Z,6.28
2023-04-09T23:31:48.240Z,6.27
2023-04-09T23:33:49.852Z,6.25
2023-04-09T23:35:51.455Z,6.25
2023-04-09T23:37:52.961Z,6.23
2023-04-09T23:39:54.458Z,6.22
2023-04-09T23:41:56.275Z,6.21
2023-04-09T23:43:57.763Z,6.21
2023-04-09T23:45:59.279Z,6.18
2023-04-09T23:48:00.786Z,6.17
2023-04-09T23:50:07.360Z,6.16
2023-04-09T23:52:08.941Z,6.14
2023-04-09T23:54:10.606Z,6.12
2023-04-09T23:56:14.431Z,6.11
2023-04-09T23:58:16.034Z,6.08
